sensor_id;sensor_type;location;lat;lon;timestamp;P1;durP1;ratioP1;P2;durP2;ratioP2
79646;SDS011;69119;41.718;21.786;2024-01-15T00:02:07;55.97;;;27.45;;
79646;SDS011;69119;41.718;21.786;2024-01-15T00:04:37;61.17;;;28.55;;
79646;SDS011;69119;41.718;21.786;2024-01-15T00:07:03;47.50;;;21.88;;
79646;SDS011;69119;41.718;21.786;2024-01-15T00:09:29;60.30;;;29.83;;
79646;SDS011;69119;41.718;21.786;2024-01-15T00:11:55;61.83;;;34.45;;
79646;SDS011;69119;41.718;21.786;2024-01-15T00:14:22;92.28;;;40.88;;
79646;SDS011;69119;41.718;21.786;2024-01-15T00:16:48;13.43;;;8.13;;
79646;SDS011;69119;41.718;21.786;2024-01-15T00:19:16;52.92;;;24.48;;
79646;SDS011;69119;41.718;21.786;2024-01-15T00:21:42;23.10;;;11.85;;
79646;SDS011;69119;41.718;21.786;2024-01-15T00:24:08;44.45;;;22.60;;
79646;SDS011;69119;41.718;21.786;2024-01-15T00:26:34;49.92;;;25.00;;
79646;SDS011;69119;41.718;21.786;2024-01-15T00:29:00;66.32;;;30.73;;
79646;SDS011;69119;41.718;21.786;2024-01-15T00:31:28;72.10;;;34.97;;
79646;SDS011;69119;41.718;21.786;2024-01-15T00:33:55;70.03;;;33.40;;
79646;SDS011;69119;41.718;21.786;2024-01-15T00:36:21;67.00;;;30.58;;
79646;SDS011;69119;41.718;21.786;2024-01-15T00:38:47;58.60;;;29.30;;
79646;SDS011;69119;41.718;21.786;2024-01-15T00:41:13;56.95;;;28.40;;
79646;SDS011;69119;41.718;21.786;2024-01-15T00:43:39;61.65;;;26.38;;
79646;SDS011;69119;41.718;21.786;2024-01-15T00:46:05;47.40;;;21.40;;
79646;SDS011;69119;41.718;21.786;2024-01-15T00:48:32;60.22;;;29.90;;
79646;SDS011;69119;41.718;21.786;2024-01-15T00:50:58;45.28;;;24.05;;
79646;SDS011;69119;41.718;21.786;2024-01-15T00:53:25;35.92;;;15.73;;
79646;SDS011;69119;41.718;21.786;2024-01-15T00:55:51;48.50;;;24.58;;
79646;SDS011;69119;41.718;21.786;2024-01-15T00:58:18;56.42;;;27.30;;
79646;SDS011;69119;41.718;21.786;2024-01-15T01:00:44;55.67;;;27.67;;
79646;SDS011;69119;41.718;21.786;2024-01-15T01:03:10;45.45;;;21.73;;
79646;SDS011;69119;41.718;21.786;2024-01-15T01:05:36;63.85;;;27.00;;
79646;SDS011;69119;41.718;21.786;2024-01-15T01:08:02;59.05;;;26.33;;
79646;SDS011;69119;41.718;21.786;2024-01-15T01:10:28;53.78;;;25.70;;
79646;SDS011;69119;41.718;21.786;2024-01-15T01:12:55;65.72;;;30.90;;
79646;SDS011;69119;41.718;21.786;2024-01-15T01:15:21;62.85;;;30.08;;
79646;SDS011;69119;41.718;21.786;2024-01-15T01:17:47;31.15;;;17.15;;
79646;SDS011;69119;41.718;21.786;2024-01-15T01:20:13;52.70;;;24.80;;
79646;SDS011;69119;41.718;21.786;2024-01-15T01:22:40;62.42;;;28.60;;
79646;SDS011;69119;41.718;21.786;2024-01-15T01:25:06;57.83;;;29.40;;
79646;SDS011;69119;41.718;21.786;2024-01-15T01:27:32;57.03;;;26.15;;
79646;SDS011;69119;41.718;21.786;2024-01-15T01:29:59;50.03;;;26.50;;
79646;SDS011;69119;41.718;21.786;2024-01-15T01:32:25;63.38;;;31.10;;
79646;SDS011;69119;41.718;21.786;2024-01-15T01:34:51;64.15;;;32.15;;
79646;SDS011;69119;41.718;21.786;2024-01-15T01:37:17;61.50;;;31.20;;
79646;SDS011;69119;41.718;21.786;2024-01-15T01:39:43;37.60;;;19.60;;
79646;SDS011;69119;41.718;21.786;2024-01-15T01:42:09;67.53;;;31.25;;
79646;SDS011;69119;41.718;21.786;2024-01-15T01:44:35;61.60;;;31.38;;
79646;SDS011;69119;41.718;21.786;2024-01-15T01:47:01;51.25;;;23.38;;
79646;SDS011;69119;41.718;21.786;2024-01-15T01:49:28;42.55;;;20.77;;
79646;SDS011;69119;41.718;21.786;2024-01-15T01:51:58;60.95;;;26.52;;
79646;SDS011;69119;41.718;21.786;2024-01-15T01:54:24;51.42;;;24.55;;
79646;SDS011;69119;41.718;21.786;2024-01-15T01:56:51;48.17;;;23.67;;
79646;SDS011;69119;41.718;21.786;2024-01-15T01:59:17;49.00;;;24.90;;
79646;SDS011;69119;41.718;21.786;2024-01-15T02:01:44;50.05;;;23.42;;
79646;SDS011;69119;41.718;21.786;2024-01-15T02:04:11;47.80;;;23.35;;
79646;SDS011;69119;41.718;21.786;2024-01-15T02:09:03;39.65;;;18.05;;
79646;SDS011;69119;41.718;21.786;2024-01-15T02:11:30;48.90;;;23.60;;
79646;SDS011;69119;41.718;21.786;2024-01-15T02:13:56;53.90;;;26.02;;
79646;SDS011;69119;41.718;21.786;2024-01-15T02:16:22;48.65;;;24.13;;
79646;SDS011;69119;41.718;21.786;2024-01-15T02:18:49;20.55;;;10.35;;
79646;SDS011;69119;41.718;21.786;2024-01-15T02:21:15;54.63;;;31.10;;
79646;SDS011;69119;41.718;21.786;2024-01-15T02:23:41;35.05;;;17.58;;
79646;SDS011;69119;41.718;21.786;2024-01-15T02:26:07;33.97;;;14.55;;
79646;SDS011;69119;41.718;21.786;2024-01-15T02:28:33;62.90;;;27.15;;
79646;SDS011;69119;41.718;21.786;2024-01-15T02:31:00;43.95;;;22.50;;
79646;SDS011;69119;41.718;21.786;2024-01-15T02:33:26;49.63;;;25.77;;
79646;SDS011;69119;41.718;21.786;2024-01-15T02:35:52;47.67;;;21.65;;
79646;SDS011;69119;41.718;21.786;2024-01-15T02:38:18;46.45;;;23.95;;
79646;SDS011;69119;41.718;21.786;2024-01-15T02:40:44;65.95;;;28.88;;
79646;SDS011;69119;41.718;21.786;2024-01-15T02:43:11;53.08;;;26.33;;
79646;SDS011;69119;41.718;21.786;2024-01-15T02:45:38;47.08;;;21.92;;
79646;SDS011;69119;41.718;21.786;2024-01-15T02:48:05;49.92;;;24.05;;
79646;SDS011;69119;41.718;21.786;2024-01-15T02:50:31;48.63;;;23.73;;
79646;SDS011;69119;41.718;21.786;2024-01-15T02:52:57;54.78;;;25.95;;
79646;SDS011;69119;41.718;21.786;2024-01-15T02:55:23;45.22;;;22.13;;
79646;SDS011;69119;41.718;21.786;2024-01-15T02:57:49;27.92;;;13.60;;
79646;SDS011;69119;41.718;21.786;2024-01-15T03:00:15;46.38;;;20.60;;
79646;SDS011;69119;41.718;21.786;2024-01-15T03:02:43;46.13;;;21.77;;
79646;SDS011;69119;41.718;21.786;2024-01-15T03:05:09;49.80;;;23.55;;
79646;SDS011;69119;41.718;21.786;2024-01-15T03:07:36;56.33;;;25.60;;
79646;SDS011;69119;41.718;21.786;2024-01-15T03:10:02;55.83;;;25.77;;
79646;SDS011;69119;41.718;21.786;2024-01-15T03:12:28;54.03;;;26.13;;
79646;SDS011;69119;41.718;21.786;2024-01-15T03:14:54;37.35;;;18.63;;
79646;SDS011;69119;41.718;21.786;2024-01-15T03:17:20;39.58;;;19.13;;
79646;SDS011;69119;41.718;21.786;2024-01-15T03:19:46;38.97;;;20.73;;
79646;SDS011;69119;41.718;21.786;2024-01-15T03:22:12;32.72;;;15.32;;
79646;SDS011;69119;41.718;21.786;2024-01-15T03:24:38;45.13;;;21.30;;
79646;SDS011;69119;41.718;21.786;2024-01-15T03:27:04;48.83;;;22.63;;
79646;SDS011;69119;41.718;21.786;2024-01-15T03:29:30;42.15;;;22.02;;
79646;SDS011;69119;41.718;21.786;2024-01-15T03:31:56;43.53;;;21.40;;
79646;SDS011;69119;41.718;21.786;2024-01-15T03:34:22;46.03;;;21.00;;
79646;SDS011;69119;41.718;21.786;2024-01-15T03:36:48;51.63;;;24.55;;
79646;SDS011;69119;41.718;21.786;2024-01-15T03:39:14;46.95;;;22.25;;
79646;SDS011;69119;41.718;21.786;2024-01-15T03:41:40;48.83;;;23.75;;
79646;SDS011;69119;41.718;21.786;2024-01-15T03:44:06;49.47;;;23.10;;
79646;SDS011;69119;41.718;21.786;2024-01-15T03:46:32;51.45;;;23.40;;
79646;SDS011;69119;41.718;21.786;2024-01-15T03:48:59;44.17;;;21.20;;
79646;SDS011;69119;41.718;21.786;2024-01-15T03:51:25;45.15;;;20.88;;
79646;SDS011;69119;41.718;21.786;2024-01-15T03:53:51;46.05;;;21.83;;
79646;SDS011;69119;41.718;21.786;2024-01-15T03:56:17;41.58;;;16.58;;
79646;SDS011;69119;41.718;21.786;2024-01-15T03:58:43;41.28;;;19.92;;
79646;SDS011;69119;41.718;21.786;2024-01-15T04:01:09;34.92;;;16.10;;
79646;SDS011;69119;41.718;21.786;2024-01-15T04:03:35;39.47;;;18.30;;
79646;SDS011;69119;41.718;21.786;2024-01-15T04:06:01;25.88;;;15.05;;
79646;SDS011;69119;41.718;21.786;2024-01-15T04:08:27;37.72;;;19.23;;
79646;SDS011;69119;41.718;21.786;2024-01-15T04:10:53;29.25;;;15.25;;
79646;SDS011;69119;41.718;21.786;2024-01-15T04:13:20;40.42;;;20.27;;
79646;SDS011;69119;41.718;21.786;2024-01-15T04:15:46;50.70;;;22.52;;
79646;SDS011;69119;41.718;21.786;2024-01-15T04:18:12;25.38;;;10.07;;
79646;SDS011;69119;41.718;21.786;2024-01-15T04:20:38;33.92;;;15.48;;
79646;SDS011;69119;41.718;21.786;2024-01-15T04:23:04;45.92;;;21.63;;
79646;SDS011;69119;41.718;21.786;2024-01-15T04:25:30;43.78;;;20.75;;
79646;SDS011;69119;41.718;21.786;2024-01-15T04:27:57;46.25;;;21.00;;
79646;SDS011;69119;41.718;21.786;2024-01-15T04:30:23;49.72;;;24.95;;
79646;SDS011;69119;41.718;21.786;2024-01-15T04:32:49;46.92;;;22.73;;
79646;SDS011;69119;41.718;21.786;2024-01-15T04:35:15;47.55;;;20.48;;
79646;SDS011;69119;41.718;21.786;2024-01-15T04:37:41;44.10;;;20.63;;
79646;SDS011;69119;41.718;21.786;2024-01-15T04:40:07;43.75;;;23.00;;
79646;SDS011;69119;41.718;21.786;2024-01-15T04:42:33;45.55;;;23.05;;
79646;SDS011;69119;41.718;21.786;2024-01-15T04:44:59;44.50;;;22.02;;
79646;SDS011;69119;41.718;21.786;2024-01-15T04:47:25;47.03;;;22.15;;
79646;SDS011;69119;41.718;21.786;2024-01-15T04:49:51;43.47;;;21.10;;
79646;SDS011;69119;41.718;21.786;2024-01-15T04:52:17;45.28;;;23.05;;
79646;SDS011;69119;41.718;21.786;2024-01-15T04:54:43;45.22;;;21.90;;
79646;SDS011;69119;41.718;21.786;2024-01-15T04:57:09;39.10;;;20.17;;
79646;SDS011;69119;41.718;21.786;2024-01-15T04:59:35;41.08;;;21.75;;
79646;SDS011;69119;41.718;21.786;2024-01-15T05:02:02;51.53;;;23.73;;
79646;SDS011;69119;41.718;21.786;2024-01-15T05:04:28;45.22;;;22.05;;
79646;SDS011;69119;41.718;21.786;2024-01-15T05:07:03;45.40;;;21.52;;
79646;SDS011;69119;41.718;21.786;2024-01-15T05:09:29;41.05;;;20.45;;
79646;SDS011;69119;41.718;21.786;2024-01-15T05:11:55;42.35;;;20.13;;
79646;SDS011;69119;41.718;21.786;2024-01-15T05:14:21;40.95;;;19.48;;
79646;SDS011;69119;41.718;21.786;2024-01-15T05:16:47;46.97;;;20.98;;
79646;SDS011;69119;41.718;21.786;2024-01-15T05:19:13;43.00;;;19.98;;
79646;SDS011;69119;41.718;21.786;2024-01-15T05:21:39;40.85;;;19.20;;
79646;SDS011;69119;41.718;21.786;2024-01-15T05:24:05;49.40;;;26.48;;
79646;SDS011;69119;41.718;21.786;2024-01-15T05:26:32;42.53;;;21.27;;
79646;SDS011;69119;41.718;21.786;2024-01-15T05:28:58;53.78;;;26.13;;
79646;SDS011;69119;41.718;21.786;2024-01-15T05:31:24;40.33;;;18.65;;
79646;SDS011;69119;41.718;21.786;2024-01-15T05:33:50;36.42;;;17.30;;
79646;SDS011;69119;41.718;21.786;2024-01-15T05:36:16;49.88;;;24.20;;
79646;SDS011;69119;41.718;21.786;2024-01-15T05:38:42;40.88;;;21.83;;
79646;SDS011;69119;41.718;21.786;2024-01-15T05:41:08;38.03;;;18.70;;
79646;SDS011;69119;41.718;21.786;2024-01-15T05:43:34;44.38;;;19.48;;
79646;SDS011;69119;41.718;21.786;2024-01-15T05:46:01;43.72;;;21.23;;
79646;SDS011;69119;41.718;21.786;2024-01-15T05:48:28;44.22;;;19.95;;
79646;SDS011;69119;41.718;21.786;2024-01-15T05:50:54;37.40;;;19.08;;
79646;SDS011;69119;41.718;21.786;2024-01-15T05:53:20;43.38;;;21.35;;
79646;SDS011;69119;41.718;21.786;2024-01-15T05:55:46;46.75;;;21.98;;
79646;SDS011;69119;41.718;21.786;2024-01-15T05:58:12;51.75;;;25.63;;
79646;SDS011;69119;41.718;21.786;2024-01-15T06:00:38;41.80;;;22.50;;
79646;SDS011;69119;41.718;21.786;2024-01-15T06:03:04;48.40;;;24.45;;
79646;SDS011;69119;41.718;21.786;2024-01-15T06:05:30;49.33;;;25.67;;
79646;SDS011;69119;41.718;21.786;2024-01-15T06:07:56;52.15;;;24.77;;
79646;SDS011;69119;41.718;21.786;2024-01-15T06:10:22;49.78;;;25.20;;
79646;SDS011;69119;41.718;21.786;2024-01-15T06:12:48;36.88;;;19.35;;
79646;SDS011;69119;41.718;21.786;2024-01-15T06:15:15;19.38;;;9.48;;
79646;SDS011;69119;41.718;21.786;2024-01-15T06:17:41;23.00;;;12.00;;
79646;SDS011;69119;41.718;21.786;2024-01-15T06:20:07;75.38;;;29.90;;
79646;SDS011;69119;41.718;21.786;2024-01-15T06:22:34;53.80;;;21.10;;
79646;SDS011;69119;41.718;21.786;2024-01-15T06:25:02;50.33;;;22.05;;
79646;SDS011;69119;41.718;21.786;2024-01-15T06:27:28;51.50;;;24.77;;
79646;SDS011;69119;41.718;21.786;2024-01-15T06:29:54;45.67;;;21.25;;
79646;SDS011;69119;41.718;21.786;2024-01-15T06:32:21;44.63;;;21.13;;
79646;SDS011;69119;41.718;21.786;2024-01-15T06:34:47;61.08;;;29.02;;
79646;SDS011;69119;41.718;21.786;2024-01-15T06:37:13;47.42;;;20.83;;
79646;SDS011;69119;41.718;21.786;2024-01-15T06:39:39;62.42;;;28.35;;
79646;SDS011;69119;41.718;21.786;2024-01-15T06:42:05;64.63;;;29.90;;
79646;SDS011;69119;41.718;21.786;2024-01-15T06:44:31;53.13;;;25.17;;
79646;SDS011;69119;41.718;21.786;2024-01-15T06:46:57;65.63;;;31.05;;
79646;SDS011;69119;41.718;21.786;2024-01-15T06:49:27;55.13;;;24.10;;
79646;SDS011;69119;41.718;21.786;2024-01-15T06:51:54;59.00;;;30.65;;
79646;SDS011;69119;41.718;21.786;2024-01-15T06:54:20;65.35;;;30.08;;
79646;SDS011;69119;41.718;21.786;2024-01-15T06:56:47;54.78;;;27.27;;
79646;SDS011;69119;41.718;21.786;2024-01-15T06:59:13;53.90;;;25.48;;
79646;SDS011;69119;41.718;21.786;2024-01-15T07:01:39;62.60;;;30.75;;
79646;SDS011;69119;41.718;21.786;2024-01-15T07:04:05;124.85;;;54.97;;
79646;SDS011;69119;41.718;21.786;2024-01-15T07:06:31;54.67;;;26.63;;
79646;SDS011;69119;41.718;21.786;2024-01-15T07:08:57;37.60;;;17.90;;
79646;SDS011;69119;41.718;21.786;2024-01-15T07:11:23;54.55;;;29.10;;
79646;SDS011;69119;41.718;21.786;2024-01-15T07:13:50;46.30;;;25.05;;
79646;SDS011;69119;41.718;21.786;2024-01-15T07:16:16;40.08;;;19.25;;
79646;SDS011;69119;41.718;21.786;2024-01-15T07:18:42;55.22;;;27.88;;
79646;SDS011;69119;41.718;21.786;2024-01-15T07:21:08;60.50;;;26.27;;
79646;SDS011;69119;41.718;21.786;2024-01-15T07:23:34;55.83;;;29.63;;
79646;SDS011;69119;41.718;21.786;2024-01-15T07:26:00;52.20;;;26.75;;
79646;SDS011;69119;41.718;21.786;2024-01-15T07:28:28;56.92;;;26.38;;
79646;SDS011;69119;41.718;21.786;2024-01-15T07:30:55;59.33;;;29.13;;
79646;SDS011;69119;41.718;21.786;2024-01-15T07:33:21;55.83;;;27.40;;
79646;SDS011;69119;41.718;21.786;2024-01-15T07:35:47;61.38;;;31.13;;
79646;SDS011;69119;41.718;21.786;2024-01-15T07:38:13;64.35;;;33.10;;
79646;SDS011;69119;41.718;21.786;2024-01-15T07:40:39;59.78;;;26.20;;
79646;SDS011;69119;41.718;21.786;2024-01-15T07:43:05;43.13;;;21.88;;
79646;SDS011;69119;41.718;21.786;2024-01-15T07:45:31;47.03;;;23.77;;
79646;SDS011;69119;41.718;21.786;2024-01-15T07:47:57;39.20;;;20.35;;
79646;SDS011;69119;41.718;21.786;2024-01-15T07:50:23;43.83;;;23.35;;
79646;SDS011;69119;41.718;21.786;2024-01-15T07:52:50;51.53;;;25.80;;
79646;SDS011;69119;41.718;21.786;2024-01-15T07:55:16;39.95;;;21.08;;
79646;SDS011;69119;41.718;21.786;2024-01-15T07:57:42;43.28;;;21.15;;
79646;SDS011;69119;41.718;21.786;2024-01-15T08:00:08;49.55;;;28.48;;
79646;SDS011;69119;41.718;21.786;2024-01-15T08:02:34;47.10;;;26.40;;
79646;SDS011;69119;41.718;21.786;2024-01-15T08:05:00;45.83;;;25.25;;
79646;SDS011;69119;41.718;21.786;2024-01-15T08:07:26;50.33;;;25.13;;
79646;SDS011;69119;41.718;21.786;2024-01-15T08:09:52;42.17;;;22.75;;
79646;SDS011;69119;41.718;21.786;2024-01-15T08:12:19;57.83;;;30.38;;
79646;SDS011;69119;41.718;21.786;2024-01-15T08:14:45;63.45;;;32.47;;
79646;SDS011;69119;41.718;21.786;2024-01-15T08:17:11;62.08;;;32.55;;
79646;SDS011;69119;41.718;21.786;2024-01-15T08:19:37;49.03;;;25.45;;
79646;SDS011;69119;41.718;21.786;2024-01-15T08:22:06;49.20;;;22.95;;
79646;SDS011;69119;41.718;21.786;2024-01-15T08:24:32;38.47;;;18.90;;
79646;SDS011;69119;41.718;21.786;2024-01-15T08:26:58;34.70;;;19.38;;
79646;SDS011;69119;41.718;21.786;2024-01-15T08:29:24;38.88;;;21.70;;
79646;SDS011;69119;41.718;21.786;2024-01-15T08:31:50;32.70;;;17.70;;
79646;SDS011;69119;41.718;21.786;2024-01-15T08:34:16;39.67;;;19.50;;
79646;SDS011;69119;41.718;21.786;2024-01-15T08:36:42;132.60;;;45.90;;
79646;SDS011;69119;41.718;21.786;2024-01-15T08:39:08;88.53;;;36.08;;
79646;SDS011;69119;41.718;21.786;2024-01-15T08:41:34;109.20;;;42.80;;
79646;SDS011;69119;41.718;21.786;2024-01-15T08:44:00;57.03;;;28.70;;
79646;SDS011;69119;41.718;21.786;2024-01-15T08:48:53;46.15;;;25.35;;
79646;SDS011;69119;41.718;21.786;2024-01-15T08:51:19;38.72;;;19.98;;
79646;SDS011;69119;41.718;21.786;2024-01-15T08:53:46;36.20;;;19.38;;
79646;SDS011;69119;41.718;21.786;2024-01-15T08:56:12;37.55;;;19.70;;
79646;SDS011;69119;41.718;21.786;2024-01-15T08:58:38;38.83;;;20.58;;
79646;SDS011;69119;41.718;21.786;2024-01-15T09:01:04;39.70;;;20.73;;
79646;SDS011;69119;41.718;21.786;2024-01-15T09:03:30;37.53;;;20.35;;
79646;SDS011;69119;41.718;21.786;2024-01-15T09:05:57;42.13;;;20.80;;
79646;SDS011;69119;41.718;21.786;2024-01-15T09:08:23;42.63;;;20.98;;
79646;SDS011;69119;41.718;21.786;2024-01-15T09:10:49;28.50;;;15.07;;
79646;SDS011;69119;41.718;21.786;2024-01-15T09:13:16;43.63;;;22.35;;
79646;SDS011;69119;41.718;21.786;2024-01-15T09:15:42;41.20;;;21.15;;
79646;SDS011;69119;41.718;21.786;2024-01-15T09:18:08;36.75;;;18.05;;
79646;SDS011;69119;41.718;21.786;2024-01-15T09:20:35;36.13;;;19.85;;
79646;SDS011;69119;41.718;21.786;2024-01-15T09:23:01;23.75;;;13.48;;
79646;SDS011;69119;41.718;21.786;2024-01-15T09:25:27;38.63;;;19.52;;
79646;SDS011;69119;41.718;21.786;2024-01-15T09:27:54;42.58;;;22.58;;
79646;SDS011;69119;41.718;21.786;2024-01-15T09:30:20;45.13;;;23.27;;
79646;SDS011;69119;41.718;21.786;2024-01-15T09:32:46;46.10;;;23.33;;
79646;SDS011;69119;41.718;21.786;2024-01-15T09:35:12;47.33;;;25.23;;
79646;SDS011;69119;41.718;21.786;2024-01-15T09:37:39;47.95;;;24.30;;
79646;SDS011;69119;41.718;21.786;2024-01-15T09:40:05;55.22;;;28.42;;
79646;SDS011;69119;41.718;21.786;2024-01-15T09:42:32;45.03;;;24.35;;
79646;SDS011;69119;41.718;21.786;2024-01-15T09:44:58;46.22;;;25.83;;
79646;SDS011;69119;41.718;21.786;2024-01-15T09:47:25;76.75;;;37.88;;
79646;SDS011;69119;41.718;21.786;2024-01-15T09:49:51;64.75;;;37.08;;
79646;SDS011;69119;41.718;21.786;2024-01-15T09:52:17;72.25;;;35.45;;
79646;SDS011;69119;41.718;21.786;2024-01-15T09:54:45;81.75;;;39.83;;
79646;SDS011;69119;41.718;21.786;2024-01-15T09:57:11;55.42;;;29.85;;
79646;SDS011;69119;41.718;21.786;2024-01-15T09:59:37;60.42;;;30.30;;
79646;SDS011;69119;41.718;21.786;2024-01-15T10:02:04;65.10;;;31.45;;
79646;SDS011;69119;41.718;21.786;2024-01-15T10:04:31;59.67;;;30.23;;
79646;SDS011;69119;41.718;21.786;2024-01-15T10:06:57;60.35;;;31.38;;
79646;SDS011;69119;41.718;21.786;2024-01-15T10:09:23;44.08;;;24.77;;
79646;SDS011;69119;41.718;21.786;2024-01-15T10:11:49;41.65;;;24.10;;
79646;SDS011;69119;41.718;21.786;2024-01-15T10:14:15;44.97;;;25.95;;
79646;SDS011;69119;41.718;21.786;2024-01-15T10:16:42;49.92;;;28.35;;
79646;SDS011;69119;41.718;21.786;2024-01-15T10:19:08;54.78;;;27.90;;
79646;SDS011;69119;41.718;21.786;2024-01-15T10:21:35;51.67;;;27.55;;
79646;SDS011;69119;41.718;21.786;2024-01-15T10:24:01;41.13;;;24.58;;
79646;SDS011;69119;41.718;21.786;2024-01-15T10:26:28;46.53;;;24.52;;
79646;SDS011;69119;41.718;21.786;2024-01-15T10:28:54;47.33;;;25.80;;
79646;SDS011;69119;41.718;21.786;2024-01-15T10:31:20;49.65;;;25.77;;
79646;SDS011;69119;41.718;21.786;2024-01-15T10:33:50;45.13;;;24.83;;
79646;SDS011;69119;41.718;21.786;2024-01-15T10:36:16;47.58;;;26.02;;
79646;SDS011;69119;41.718;21.786;2024-01-15T10:38:43;45.25;;;24.15;;
79646;SDS011;69119;41.718;21.786;2024-01-15T10:41:09;43.63;;;22.98;;
79646;SDS011;69119;41.718;21.786;2024-01-15T10:43:35;66.05;;;36.65;;
79646;SDS011;69119;41.718;21.786;2024-01-15T10:46:02;51.50;;;25.95;;
79646;SDS011;69119;41.718;21.786;2024-01-15T10:48:28;45.22;;;24.70;;
79646;SDS011;69119;41.718;21.786;2024-01-15T10:50:56;51.70;;;27.63;;
79646;SDS011;69119;41.718;21.786;2024-01-15T10:55:48;46.58;;;23.52;;
79646;SDS011;69119;41.718;21.786;2024-01-15T10:58:16;51.70;;;26.00;;
79646;SDS011;69119;41.718;21.786;2024-01-15T11:00:42;50.10;;;26.10;;
79646;SDS011;69119;41.718;21.786;2024-01-15T11:03:09;53.28;;;31.65;;
79646;SDS011;69119;41.718;21.786;2024-01-15T11:05:38;63.53;;;32.80;;
79646;SDS011;69119;41.718;21.786;2024-01-15T11:08:05;214.32;;;87.93;;
79646;SDS011;69119;41.718;21.786;2024-01-15T11:10:37;65.10;;;36.55;;
79646;SDS011;69119;41.718;21.786;2024-01-15T11:13:05;72.80;;;40.92;;
79646;SDS011;69119;41.718;21.786;2024-01-15T11:15:36;60.72;;;32.58;;
79646;SDS011;69119;41.718;21.786;2024-01-15T11:18:19;59.40;;;33.70;;
79646;SDS011;69119;41.718;21.786;2024-01-15T11:23:48;85.50;;;41.55;;
79646;SDS011;69119;41.718;21.786;2024-01-15T11:28:59;56.70;;;32.78;;
79646;SDS011;69119;41.718;21.786;2024-01-15T11:34:07;59.38;;;35.60;;
79646;SDS011;69119;41.718;21.786;2024-01-15T11:41:57;58.85;;;28.17;;
79646;SDS011;69119;41.718;21.786;2024-01-15T11:44:23;58.50;;;30.02;;
79646;SDS011;69119;41.718;21.786;2024-01-15T11:46:58;47.10;;;27.63;;
79646;SDS011;69119;41.718;21.786;2024-01-15T11:49:40;61.95;;;32.60;;
79646;SDS011;69119;41.718;21.786;2024-01-15T11:52:11;55.70;;;30.08;;
79646;SDS011;69119;41.718;21.786;2024-01-15T11:54:38;45.00;;;23.17;;
79646;SDS011;69119;41.718;21.786;2024-01-15T11:57:07;43.30;;;24.08;;
79646;SDS011;69119;41.718;21.786;2024-01-15T11:59:35;83.95;;;45.92;;
79646;SDS011;69119;41.718;21.786;2024-01-15T12:02:02;50.20;;;26.85;;
79646;SDS011;69119;41.718;21.786;2024-01-15T12:04:28;47.97;;;26.02;;
79646;SDS011;69119;41.718;21.786;2024-01-15T12:06:54;49.22;;;27.23;;
79646;SDS011;69119;41.718;21.786;2024-01-15T12:09:20;54.67;;;28.65;;
79646;SDS011;69119;41.718;21.786;2024-01-15T12:11:49;53.75;;;28.10;;
79646;SDS011;69119;41.718;21.786;2024-01-15T12:14:16;58.35;;;30.63;;
79646;SDS011;69119;41.718;21.786;2024-01-15T12:16:43;66.07;;;34.17;;
79646;SDS011;69119;41.718;21.786;2024-01-15T12:19:09;74.72;;;37.45;;
79646;SDS011;69119;41.718;21.786;2024-01-15T12:21:35;66.25;;;35.75;;
79646;SDS011;69119;41.718;21.786;2024-01-15T12:24:01;59.67;;;33.03;;
79646;SDS011;69119;41.718;21.786;2024-01-15T12:26:27;58.42;;;30.80;;
79646;SDS011;69119;41.718;21.786;2024-01-15T12:28:54;56.45;;;32.78;;
79646;SDS011;69119;41.718;21.786;2024-01-15T12:31:20;55.28;;;30.92;;
79646;SDS011;69119;41.718;21.786;2024-01-15T12:33:46;56.70;;;33.75;;
79646;SDS011;69119;41.718;21.786;2024-01-15T12:36:13;70.88;;;41.60;;
79646;SDS011;69119;41.718;21.786;2024-01-15T12:38:39;75.03;;;40.10;;
79646;SDS011;69119;41.718;21.786;2024-01-15T12:41:05;77.30;;;38.65;;
79646;SDS011;69119;41.718;21.786;2024-01-15T12:43:31;73.30;;;37.85;;
79646;SDS011;69119;41.718;21.786;2024-01-15T12:45:57;73.90;;;38.10;;
79646;SDS011;69119;41.718;21.786;2024-01-15T12:48:23;83.40;;;43.53;;
79646;SDS011;69119;41.718;21.786;2024-01-15T12:50:51;103.88;;;45.65;;
79646;SDS011;69119;41.718;21.786;2024-01-15T12:53:18;116.28;;;53.08;;
79646;SDS011;69119;41.718;21.786;2024-01-15T12:55:44;71.63;;;35.92;;
79646;SDS011;69119;41.718;21.786;2024-01-15T12:58:10;56.15;;;29.25;;
79646;SDS011;69119;41.718;21.786;2024-01-15T13:00:36;56.95;;;34.60;;
79646;SDS011;69119;41.718;21.786;2024-01-15T13:03:02;54.55;;;30.80;;
79646;SDS011;69119;41.718;21.786;2024-01-15T13:05:29;43.72;;;21.85;;
79646;SDS011;69119;41.718;21.786;2024-01-15T13:07:55;53.13;;;29.63;;
79646;SDS011;69119;41.718;21.786;2024-01-15T13:10:21;62.85;;;30.80;;
79646;SDS011;69119;41.718;21.786;2024-01-15T13:12:47;64.85;;;33.85;;
79646;SDS011;69119;41.718;21.786;2024-01-15T13:15:14;66.13;;;32.70;;
79646;SDS011;69119;41.718;21.786;2024-01-15T13:17:40;72.78;;;37.38;;
79646;SDS011;69119;41.718;21.786;2024-01-15T13:20:06;77.95;;;39.67;;
79646;SDS011;69119;41.718;21.786;2024-01-15T13:22:33;112.18;;;51.95;;
79646;SDS011;69119;41.718;21.786;2024-01-15T13:24:59;86.70;;;44.08;;
79646;SDS011;69119;41.718;21.786;2024-01-15T13:27:26;127.38;;;54.00;;
79646;SDS011;69119;41.718;21.786;2024-01-15T13:29:52;65.80;;;31.92;;
79646;SDS011;69119;41.718;21.786;2024-01-15T13:32:21;93.80;;;45.15;;
79646;SDS011;69119;41.718;21.786;2024-01-15T13:34:48;79.97;;;38.67;;
79646;SDS011;69119;41.718;21.786;2024-01-15T13:37:14;63.80;;;27.85;;
79646;SDS011;69119;41.718;21.786;2024-01-15T13:39:40;70.38;;;35.40;;
79646;SDS011;69119;41.718;21.786;2024-01-15T13:42:06;84.47;;;43.28;;
79646;SDS011;69119;41.718;21.786;2024-01-15T13:44:32;107.72;;;52.78;;
79646;SDS011;69119;41.718;21.786;2024-01-15T13:46:58;134.70;;;63.13;;
79646;SDS011;69119;41.718;21.786;2024-01-15T13:49:25;120.45;;;64.28;;
79646;SDS011;69119;41.718;21.786;2024-01-15T13:51:51;123.80;;;60.78;;
79646;SDS011;69119;41.718;21.786;2024-01-15T13:54:17;83.22;;;42.25;;
79646;SDS011;69119;41.718;21.786;2024-01-15T13:56:45;76.25;;;40.00;;
79646;SDS011;69119;41.718;21.786;2024-01-15T13:59:12;85.40;;;46.63;;
79646;SDS011;69119;41.718;21.786;2024-01-15T14:01:38;84.00;;;42.70;;
79646;SDS011;69119;41.718;21.786;2024-01-15T14:04:04;111.72;;;54.47;;
79646;SDS011;69119;41.718;21.786;2024-01-15T14:06:30;76.18;;;38.55;;
79646;SDS011;69119;41.718;21.786;2024-01-15T14:08:57;73.55;;;38.55;;
79646;SDS011;69119;41.718;21.786;2024-01-15T14:11:23;72.30;;;33.75;;
79646;SDS011;69119;41.718;21.786;2024-01-15T14:13:49;51.75;;;25.20;;
79646;SDS011;69119;41.718;21.786;2024-01-15T14:16:15;79.10;;;37.17;;
79646;SDS011;69119;41.718;21.786;2024-01-15T14:18:41;53.47;;;27.23;;
79646;SDS011;69119;41.718;21.786;2024-01-15T14:21:07;59.03;;;32.15;;
79646;SDS011;69119;41.718;21.786;2024-01-15T14:23:33;50.58;;;27.63;;
79646;SDS011;69119;41.718;21.786;2024-01-15T14:25:59;72.05;;;40.15;;